Akron, New York
Current Conditions -  °F | °C
As of 9:54 PM on Sunday 23 Nov 2014 (Local Time) from KBUF Reporting Station
Overcast Overcast  
Wind Chill: 50°   Ceiling: 20000
Heat Index: 50°   Visibility: 10mi
Dew Point: 35°   Wind: 9mph
Humidity: 57%   Direction: 140°SE
Pressure: 29.68"   Gusts: NA
Location:  43.02°N, 78.5°W
Report Text: KBUF 240254Z 14008KT 10SM FEW090 SCT130 OVC200 10/02 A2968 RMK AO2 SLP053 T01000017 58039
Loading
Personal Weather Stations






























Interactive Weather Map New forecast layout! Learn more

10-Day Weather Forecast

Advertisements
Track Severe Weather on mobile